createdAt,value
2018-08-09T00:02:18.105Z,13.10
2018-08-09T00:04:45.437Z,13.43
2018-08-09T00:07:12.838Z,14.73
2018-08-09T00:09:40.178Z,12.13
2018-08-09T00:12:07.624Z,15.70
2018-08-09T00:14:34.980Z,18.63
2018-08-09T00:17:02.305Z,13.73
2018-08-09T00:19:30.102Z,12.90
2018-08-09T00:21:58.603Z,12.73
2018-08-09T00:24:26.381Z,9.67
2018-08-09T00:26:53.777Z,11.87
2018-08-09T00:29:21.138Z,13.60
2018-08-09T00:31:48.507Z,13.60
2018-08-09T00:34:15.874Z,10.47
2018-08-09T00:36:43.210Z,22.63
2018-08-09T00:39:12.378Z,10.33
2018-08-09T00:41:40.330Z,9.93
2018-08-09T00:44:07.758Z,9.30
2018-08-09T00:46:35.190Z,24.83
2018-08-09T00:49:02.578Z,12.50
2018-08-09T00:51:30.707Z,15.00
2018-08-09T00:53:59.251Z,10.00
2018-08-09T00:56:26.920Z,13.90
2018-08-09T00:58:54.563Z,16.20
2018-08-09T01:01:21.891Z,15.47
2018-08-09T01:03:49.461Z,17.47
2018-08-09T01:06:16.903Z,10.47
2018-08-09T01:08:49.713Z,17.50
2018-08-09T01:11:17.042Z,17.27
2018-08-09T01:13:44.392Z,13.10
2018-08-09T01:16:11.731Z,11.87
2018-08-09T01:18:39.120Z,10.40
2018-08-09T01:21:06.514Z,13.03
2018-08-09T01:23:33.910Z,12.47
2018-08-09T01:26:02.427Z,24.63
2018-08-09T01:28:30.830Z,14.90
2018-08-09T01:30:58.586Z,16.63
2018-08-09T01:33:26.034Z,15.53
2018-08-09T01:35:53.442Z,20.83
2018-08-09T01:38:20.816Z,14.40
2018-08-09T01:40:48.138Z,12.80
2018-08-09T01:43:21.061Z,10.90
2018-08-09T01:45:48.429Z,14.93
2018-08-09T01:48:15.786Z,14.23
2018-08-09T01:50:43.143Z,10.50
2018-08-09T01:53:10.526Z,11.67
2018-08-09T01:55:37.919Z,15.53
2018-08-09T01:58:05.295Z,10.00
2018-08-09T02:00:33.741Z,16.23
2018-08-09T02:03:02.535Z,9.73
2018-08-09T02:05:29.913Z,12.00
2018-08-09T02:07:57.273Z,13.07
2018-08-09T02:10:24.657Z,38.60
2018-08-09T02:12:52.008Z,47.13
2018-08-09T02:15:19.449Z,18.00
2018-08-09T02:17:46.800Z,16.80
2018-08-09T02:20:14.209Z,20.00
2018-08-09T02:22:41.996Z,12.13
2018-08-09T02:25:10.321Z,13.10
2018-08-09T02:27:38.508Z,11.97
2018-08-09T02:30:05.933Z,16.00
2018-08-09T02:32:33.393Z,13.43
2018-08-09T02:35:00.878Z,18.37
2018-08-09T02:37:28.210Z,25.13
2018-08-09T02:39:55.695Z,23.63
2018-08-09T02:42:23.059Z,25.17
2018-08-09T02:44:50.593Z,24.93
2018-08-09T02:47:18.643Z,17.83
2018-08-09T02:49:46.147Z,24.17
2018-08-09T02:52:13.522Z,20.90
2018-08-09T02:54:41.400Z,71.90
2018-08-09T02:57:09.913Z,26.03
2018-08-09T02:59:37.609Z,17.07
2018-08-09T03:02:05.046Z,17.43
2018-08-09T03:04:32.386Z,18.30
2018-08-09T03:06:59.790Z,14.57
2018-08-09T03:09:27.227Z,14.87
2018-08-09T03:11:54.597Z,17.30
2018-08-09T03:14:21.938Z,11.73
2018-08-09T03:16:49.483Z,13.77
2018-08-09T03:19:16.830Z,21.20
2018-08-09T03:21:44.290Z,10.43
2018-08-09T03:24:12.020Z,15.73
2018-08-09T03:26:41.615Z,13.23
2018-08-09T03:29:09.719Z,13.13
2018-08-09T03:31:37.148Z,16.60
2018-08-09T03:34:04.626Z,13.70
2018-08-09T03:36:32.006Z,18.53
2018-08-09T03:38:59.441Z,13.80
2018-08-09T03:41:26.818Z,14.20
2018-08-09T03:43:54.182Z,17.70
2018-08-09T03:46:21.717Z,23.43
2018-08-09T03:48:49.102Z,19.67
2018-08-09T03:51:16.675Z,14.27
2018-08-09T03:53:44.057Z,9.97
2018-08-09T03:56:12.912Z,19.00
2018-08-09T03:58:41.211Z,19.50
2018-08-09T04:01:09.579Z,17.33
2018-08-09T04:03:37.008Z,13.37
2018-08-09T04:06:04.419Z,19.50
2018-08-09T04:08:31.862Z,15.87
2018-08-09T04:10:59.263Z,16.33
2018-08-09T04:13:26.729Z,19.57
2018-08-09T04:15:54.143Z,17.93
2018-08-09T04:18:21.588Z,16.60
2018-08-09T04:20:48.935Z,18.63
2018-08-09T04:23:16.300Z,19.13
2018-08-09T04:25:43.827Z,19.57
2018-08-09T04:28:12.267Z,13.00
2018-08-09T04:30:40.095Z,14.93
2018-08-09T04:33:07.571Z,17.33
2018-08-09T04:35:34.898Z,18.73
2018-08-09T04:38:02.590Z,33.60
2018-08-09T04:40:29.878Z,27.57
2018-08-09T04:42:57.341Z,17.13
2018-08-09T04:45:24.767Z,18.10
2018-08-09T04:47:52.269Z,17.67
2018-08-09T04:50:19.626Z,12.93
2018-08-09T04:52:46.980Z,15.93
2018-08-09T04:55:14.534Z,23.30
2018-08-09T04:57:43.645Z,14.97
2018-08-09T05:00:12.296Z,18.33
2018-08-09T05:02:39.809Z,19.70
2018-08-09T05:05:07.264Z,21.00
2018-08-09T05:07:34.633Z,16.20
2018-08-09T05:10:07.354Z,14.03
2018-08-09T05:12:34.874Z,27.57
2018-08-09T05:15:02.402Z,17.70
2018-08-09T05:17:29.962Z,31.93
2018-08-09T05:19:57.443Z,17.33
2018-08-09T05:22:25.232Z,18.87
2018-08-09T05:24:52.814Z,12.50
2018-08-09T05:27:20.254Z,14.60
2018-08-09T05:29:47.604Z,18.47
2018-08-09T05:32:15.404Z,27.30
2018-08-09T05:34:44.426Z,13.63
2018-08-09T05:37:12.513Z,14.00
2018-08-09T05:39:39.927Z,16.23
2018-08-09T05:42:07.480Z,20.50
2018-08-09T05:44:36.460Z,15.70
2018-08-09T05:47:03.963Z,15.43
2018-08-09T05:49:31.610Z,19.73
2018-08-09T05:51:58.968Z,16.83
2018-08-09T05:54:26.899Z,12.43
2018-08-09T05:56:54.886Z,12.73
2018-08-09T05:59:22.437Z,22.63
2018-08-09T06:01:49.893Z,27.33
2018-08-09T06:04:17.473Z,12.03
2018-08-09T06:06:46.003Z,25.47
2018-08-09T06:09:14.672Z,18.60
2018-08-09T06:11:45.057Z,18.73
2018-08-09T06:14:15.145Z,14.57
2018-08-09T06:16:43.123Z,22.60
2018-08-09T06:19:10.562Z,19.93
2018-08-09T06:21:37.933Z,18.77
2018-08-09T06:24:05.364Z,15.53
2018-08-09T06:26:32.732Z,28.90
2018-08-09T06:29:00.135Z,26.20
2018-08-09T06:31:27.529Z,22.10
2018-08-09T06:33:54.901Z,18.05
2018-08-09T06:36:22.232Z,17.70
2018-08-09T06:38:49.655Z,16.30
2018-08-09T06:41:17.174Z,20.47
2018-08-09T06:43:45.595Z,22.70
2018-08-09T06:46:13.850Z,23.93
2018-08-09T06:48:41.266Z,17.00
2018-08-09T06:51:08.623Z,18.53
2018-08-09T06:53:36.003Z,28.30
2018-08-09T06:56:03.363Z,19.93
2018-08-09T06:58:30.800Z,20.53
2018-08-09T07:00:58.154Z,22.00
2018-08-09T07:03:25.537Z,15.40
2018-08-09T07:05:52.895Z,24.97
2018-08-09T07:08:20.283Z,18.70
2018-08-09T07:10:47.800Z,29.77
2018-08-09T07:13:16.268Z,30.87
2018-08-09T07:15:44.251Z,19.13
2018-08-09T07:18:11.698Z,16.73
2018-08-09T07:20:39.070Z,27.30
2018-08-09T07:23:06.415Z,21.47
2018-08-09T07:25:33.799Z,24.77
2018-08-09T07:28:01.142Z,24.23
2018-08-09T07:30:28.518Z,34.07
2018-08-09T07:32:55.879Z,21.77
2018-08-09T07:35:23.256Z,22.27
2018-08-09T07:37:50.621Z,25.40
2018-08-09T07:40:18.146Z,16.13
2018-08-09T07:42:46.992Z,19.77
2018-08-09T07:45:15.159Z,20.70
2018-08-09T07:47:42.594Z,15.83
2018-08-09T07:50:10.460Z,20.23
2018-08-09T07:52:37.904Z,22.60
2018-08-09T07:55:06.125Z,22.30
2018-08-09T07:57:33.504Z,16.33
2018-08-09T08:00:00.858Z,19.93
2018-08-09T08:02:28.259Z,14.40
2018-08-09T08:04:55.621Z,25.73
2018-08-09T08:07:22.958Z,27.30
2018-08-09T08:09:50.337Z,27.33
2018-08-09T08:12:18.069Z,16.10
2018-08-09T08:14:46.452Z,21.13
2018-08-09T08:17:13.967Z,13.30
2018-08-09T08:19:41.414Z,16.40
2018-08-09T08:22:08.797Z,16.30
2018-08-09T08:24:36.180Z,13.90
2018-08-09T08:27:03.573Z,14.20
2018-08-09T08:29:30.933Z,10.90
2018-08-09T08:31:58.272Z,15.20
2018-08-09T08:34:25.655Z,18.00
2018-08-09T08:36:53.017Z,27.07
2018-08-09T08:39:20.403Z,15.63
2018-08-09T08:41:48.570Z,18.33
2018-08-09T08:44:16.759Z,13.30
2018-08-09T08:46:44.280Z,14.97
2018-08-09T08:49:11.689Z,15.40
2018-08-09T08:51:39.113Z,18.43
2018-08-09T08:54:06.576Z,17.17
2018-08-09T08:56:33.959Z,13.77
2018-08-09T08:59:01.282Z,13.40
2018-08-09T09:01:28.718Z,14.87
2018-08-09T09:03:56.057Z,9.93
2018-08-09T09:06:23.427Z,16.97
2018-08-09T09:08:50.796Z,10.00
2018-08-09T09:11:18.173Z,12.70
2018-08-09T09:13:45.655Z,14.00
2018-08-09T09:16:13.009Z,31.37
2018-08-09T09:18:40.789Z,7.87
2018-08-09T09:21:09.278Z,10.77
2018-08-09T09:23:36.963Z,14.53
2018-08-09T09:26:04.515Z,22.33
2018-08-09T09:28:31.851Z,12.43
2018-08-09T09:30:59.232Z,22.53
2018-08-09T09:33:26.579Z,9.57
2018-08-09T09:35:53.966Z,13.33
2018-08-09T09:38:21.333Z,10.40
2018-08-09T09:40:48.689Z,6.00
2018-08-09T09:43:16.019Z,13.57
2018-08-09T09:45:43.400Z,15.50
2018-08-09T09:48:11.177Z,13.60
2018-08-09T09:50:39.707Z,11.80
2018-08-09T09:53:07.374Z,11.43
2018-08-09T09:55:34.790Z,17.50
2018-08-09T09:58:02.141Z,10.13
2018-08-09T10:00:34.173Z,10.73
2018-08-09T10:03:01.509Z,11.70
2018-08-09T10:05:28.860Z,7.03
2018-08-09T10:07:56.213Z,18.13
2018-08-09T10:10:23.645Z,15.63
2018-08-09T10:12:51.049Z,12.50
2018-08-09T10:15:18.404Z,16.17
2018-08-09T10:17:45.763Z,7.20
2018-08-09T10:20:13.097Z,16.90
2018-08-09T10:22:41.186Z,14.77
2018-08-09T10:25:09.438Z,12.90
2018-08-09T10:27:37.001Z,13.43
2018-08-09T10:30:05.061Z,13.23
2018-08-09T10:32:32.507Z,16.20
2018-08-09T10:34:59.865Z,6.97
2018-08-09T10:37:27.231Z,13.43
2018-08-09T10:39:54.575Z,13.83
2018-08-09T10:42:21.945Z,9.93
2018-08-09T10:44:49.273Z,10.73
2018-08-09T10:47:17.523Z,9.57
2018-08-09T10:49:44.849Z,13.70
2018-08-09T10:52:12.449Z,5.47
2018-08-09T10:54:40.901Z,13.10
2018-08-09T10:57:08.746Z,9.27
2018-08-09T10:59:36.387Z,14.43
2018-08-09T11:02:03.765Z,8.37
2018-08-09T11:04:31.089Z,12.93
2018-08-09T11:06:58.494Z,10.50
2018-08-09T11:09:25.826Z,7.33
2018-08-09T11:11:53.200Z,6.87
2018-08-09T11:14:20.526Z,10.53
2018-08-09T11:16:47.965Z,6.00
2018-08-09T11:19:15.363Z,9.20
2018-08-09T11:21:42.914Z,6.20
2018-08-09T11:24:11.318Z,6.30
2018-08-09T11:26:39.465Z,12.50
2018-08-09T11:29:06.876Z,6.13
2018-08-09T11:31:34.223Z,11.20
2018-08-09T11:34:01.615Z,13.00
2018-08-09T11:36:28.934Z,6.50
2018-08-09T11:38:56.352Z,7.23
2018-08-09T11:41:23.687Z,11.47
2018-08-09T11:43:51.049Z,10.47
2018-08-09T11:46:18.931Z,5.87
2018-08-09T11:48:46.277Z,5.63
2018-08-09T11:51:13.733Z,5.80
2018-08-09T11:53:42.044Z,7.07
2018-08-09T11:56:10.009Z,10.03
2018-08-09T11:58:37.388Z,8.43
2018-08-09T12:01:04.731Z,12.30
2018-08-09T12:03:32.134Z,10.67
2018-08-09T12:05:59.464Z,17.40
2018-08-09T12:08:26.820Z,7.70
2018-08-09T12:10:54.158Z,8.43
2018-08-09T12:13:21.576Z,6.77
2018-08-09T12:15:48.958Z,13.30
2018-08-09T12:18:16.343Z,12.17
2018-08-09T12:20:43.911Z,10.27
2018-08-09T12:23:12.446Z,6.00
2018-08-09T12:25:40.387Z,11.73
2018-08-09T12:28:08.021Z,11.77
2018-08-09T12:30:35.575Z,18.40
2018-08-09T12:33:02.996Z,19.30
2018-08-09T12:35:30.381Z,8.13
2018-08-09T12:37:57.757Z,5.20
2018-08-09T12:40:25.099Z,10.47
2018-08-09T12:42:52.516Z,7.40
2018-08-09T12:45:19.956Z,11.50
2018-08-09T12:47:47.294Z,6.83
2018-08-09T12:50:14.979Z,5.10
2018-08-09T12:52:43.977Z,8.07
2018-08-09T12:55:12.899Z,6.23
2018-08-09T12:57:40.712Z,12.73
2018-08-09T13:00:09.391Z,10.93
2018-08-09T13:02:36.826Z,4.33
2018-08-09T13:05:04.444Z,7.23
2018-08-09T13:07:31.804Z,6.17
2018-08-09T13:09:59.173Z,11.40
2018-08-09T13:12:26.521Z,17.33
2018-08-09T13:14:53.894Z,14.20
2018-08-09T13:17:21.291Z,84.07
2018-08-09T13:19:48.953Z,116.87
2018-08-09T13:22:16.300Z,45.77
2018-08-09T13:24:44.327Z,47.07
2018-08-09T13:27:12.570Z,66.27
2018-08-09T13:29:40.022Z,41.77
2018-08-09T13:32:07.435Z,32.60
2018-08-09T13:34:34.795Z,43.43
2018-08-09T13:37:02.174Z,33.13
2018-08-09T13:39:29.547Z,43.70
2018-08-09T13:41:56.874Z,25.83
2018-08-09T13:44:24.253Z,16.30
2018-08-09T13:46:51.616Z,8.53
2018-08-09T13:49:19.015Z,16.23
2018-08-09T13:51:46.354Z,13.47
2018-08-09T13:54:14.719Z,7.70
2018-08-09T13:56:42.834Z,6.23
2018-08-09T13:59:10.227Z,12.83
2018-08-09T14:01:37.578Z,13.40
2018-08-09T14:04:04.976Z,10.07
2018-08-09T14:06:32.356Z,14.50
2018-08-09T14:08:59.747Z,10.53
2018-08-09T14:11:27.162Z,9.43
2018-08-09T14:13:54.546Z,17.83
2018-08-09T14:16:21.930Z,15.63
2018-08-09T14:18:49.303Z,14.50
2018-08-09T14:21:16.750Z,11.57
2018-08-09T14:23:45.246Z,7.40
2018-08-09T14:26:13.289Z,15.63
2018-08-09T14:28:40.949Z,12.03
2018-08-09T14:31:08.648Z,10.27
2018-08-09T14:33:36.049Z,17.57
2018-08-09T14:36:03.463Z,9.83
2018-08-09T14:38:31.086Z,14.87
2018-08-09T14:40:58.801Z,25.67
2018-08-09T14:43:26.610Z,5.47
2018-08-09T14:45:54.348Z,14.10
2018-08-09T14:48:22.300Z,17.37
2018-08-09T14:50:50.126Z,13.83
2018-08-09T14:53:17.737Z,19.93
2018-08-09T14:55:46.358Z,9.53
2018-08-09T14:58:15.184Z,12.97
2018-08-09T15:00:43.224Z,12.70
2018-08-09T15:03:10.863Z,8.50
2018-08-09T15:05:38.562Z,14.07
2018-08-09T15:08:06.142Z,4.30
2018-08-09T15:10:33.525Z,8.53
2018-08-09T15:13:00.914Z,6.90
2018-08-09T15:15:28.322Z,7.90
2018-08-09T15:17:55.704Z,8.03
2018-08-09T15:20:23.059Z,10.10
2018-08-09T15:22:50.415Z,14.40
2018-08-09T15:25:17.863Z,9.47
2018-08-09T15:27:46.077Z,18.67
2018-08-09T15:30:16.496Z,5.90
2018-08-09T15:32:44.779Z,18.87
2018-08-09T15:35:12.444Z,9.57
2018-08-09T15:37:39.864Z,65.10
2018-08-09T15:40:08.035Z,9.43
2018-08-09T15:42:35.439Z,16.03
2018-08-09T15:45:02.888Z,10.00
2018-08-09T15:47:30.338Z,15.70
2018-08-09T15:49:57.623Z,9.53
2018-08-09T15:52:24.963Z,9.40
2018-08-09T15:54:52.389Z,7.10
2018-08-09T15:57:19.772Z,9.53
2018-08-09T15:59:47.457Z,7.77
2018-08-09T16:02:15.929Z,6.93
2018-08-09T16:04:43.370Z,6.47
2018-08-09T16:07:10.841Z,10.27
2018-08-09T16:09:38.249Z,6.27
2018-08-09T16:12:05.660Z,7.17
2018-08-09T16:14:32.998Z,12.73
2018-08-09T16:17:00.363Z,5.00
2018-08-09T16:19:27.684Z,9.13
2018-08-09T16:21:55.089Z,3.30
2018-08-09T16:24:22.435Z,6.25
2018-08-09T16:26:49.800Z,12.63
2018-08-09T16:29:17.745Z,3.40
2018-08-09T16:31:46.019Z,9.00
2018-08-09T16:34:13.435Z,3.20
2018-08-09T16:36:40.791Z,4.20
2018-08-09T16:39:08.961Z,7.03
2018-08-09T16:41:36.354Z,13.90
2018-08-09T16:44:03.766Z,4.10
2018-08-09T16:46:31.277Z,7.00
2018-08-09T16:48:58.613Z,5.33
2018-08-09T16:51:25.977Z,7.27
2018-08-09T16:53:53.323Z,8.90
2018-08-09T16:56:20.961Z,9.13
2018-08-09T16:58:49.102Z,6.47
2018-08-09T17:01:17.469Z,23.27
2018-08-09T17:03:45.122Z,7.77
2018-08-09T17:06:12.845Z,7.77
2018-08-09T17:08:40.213Z,8.77
2018-08-09T17:11:07.590Z,9.10
2018-08-09T17:13:34.962Z,5.70
2018-08-09T17:16:03.006Z,6.23
2018-08-09T17:18:30.412Z,7.40
2018-08-09T17:20:57.834Z,11.67
2018-08-09T17:23:25.243Z,6.90
2018-08-09T17:25:52.617Z,9.30
2018-08-09T17:28:20.584Z,3.03
2018-08-09T17:30:48.931Z,10.93
2018-08-09T17:33:16.860Z,14.80
2018-08-09T17:35:44.288Z,7.27
2018-08-09T17:38:11.695Z,6.73
2018-08-09T17:40:39.087Z,5.93
2018-08-09T17:43:06.505Z,8.07
2018-08-09T17:45:34.258Z,14.20
2018-08-09T17:48:01.799Z,8.30
2018-08-09T17:50:29.234Z,6.50
2018-08-09T17:52:57.549Z,8.23
2018-08-09T17:55:24.943Z,8.43
2018-08-09T17:57:52.430Z,4.23
2018-08-09T18:00:22.534Z,6.50
2018-08-09T18:02:50.788Z,8.47
2018-08-09T18:05:19.208Z,13.43
2018-08-09T18:07:46.801Z,5.33
2018-08-09T18:10:15.711Z,6.33
2018-08-09T18:12:43.126Z,35.70
2018-08-09T18:15:10.504Z,11.70
2018-08-09T18:17:37.895Z,8.50
2018-08-09T18:20:07.666Z,6.50
2018-08-09T18:22:35.086Z,9.37
2018-08-09T18:25:02.422Z,7.63
2018-08-09T18:27:29.859Z,6.80
2018-08-09T18:29:57.224Z,7.37
2018-08-09T18:32:24.632Z,10.47
2018-08-09T18:34:52.241Z,9.33
2018-08-09T18:37:20.674Z,13.53
2018-08-09T18:39:48.560Z,7.53
2018-08-09T18:42:16.015Z,12.50
2018-08-09T18:44:43.523Z,13.30
2018-08-09T18:47:10.893Z,5.10
2018-08-09T18:49:38.289Z,7.80
2018-08-09T18:52:05.663Z,12.83
2018-08-09T18:54:33.052Z,7.27
2018-08-09T18:57:00.419Z,6.60
2018-08-09T18:59:27.836Z,7.20
2018-08-09T19:01:55.179Z,6.23
2018-08-09T19:04:22.911Z,10.63
2018-08-09T19:06:51.210Z,7.97
2018-08-09T19:09:19.179Z,6.40
2018-08-09T19:11:46.622Z,10.70
2018-08-09T19:14:13.995Z,7.47
2018-08-09T19:16:41.492Z,8.87
2018-08-09T19:19:08.885Z,5.53
2018-08-09T19:21:36.239Z,3.07
2018-08-09T19:24:03.658Z,9.20
2018-08-09T19:26:31.004Z,5.00
2018-08-09T19:28:58.478Z,9.80
2018-08-09T19:31:25.835Z,5.97
2018-08-09T19:33:53.618Z,4.70
2018-08-09T19:36:22.104Z,6.80
2018-08-09T19:38:50.028Z,14.33
2018-08-09T19:41:17.650Z,10.20
2018-08-09T19:43:45.042Z,5.60
2018-08-09T19:46:12.442Z,6.03
2018-08-09T19:48:39.901Z,3.27
2018-08-09T19:51:07.258Z,5.03
2018-08-09T19:53:34.699Z,5.33
2018-08-09T19:56:02.102Z,4.40
2018-08-09T19:58:29.542Z,3.67
2018-08-09T20:00:56.958Z,4.93
2018-08-09T20:03:24.462Z,5.70
2018-08-09T20:05:52.859Z,3.23
2018-08-09T20:08:20.628Z,4.73
2018-08-09T20:10:48.112Z,3.50
2018-08-09T20:13:15.594Z,3.53
2018-08-09T20:15:42.957Z,5.00
2018-08-09T20:18:10.306Z,7.90
2018-08-09T20:20:37.733Z,6.47
2018-08-09T20:23:05.109Z,4.40
2018-08-09T20:25:32.509Z,8.47
2018-08-09T20:27:59.891Z,2.43
2018-08-09T20:30:27.258Z,5.07
2018-08-09T20:32:54.951Z,5.93
2018-08-09T20:35:24.271Z,6.40
2018-08-09T20:37:52.678Z,3.07
2018-08-09T20:40:22.407Z,8.50
2018-08-09T20:42:51.175Z,3.60
2018-08-09T20:45:19.913Z,4.80
2018-08-09T20:47:47.318Z,3.57
2018-08-09T20:50:16.422Z,4.80
2018-08-09T20:52:44.620Z,2.37
2018-08-09T20:55:12.031Z,2.47
2018-08-09T20:57:40.363Z,3.07
2018-08-09T21:00:11.794Z,2.90
2018-08-09T21:02:39.383Z,5.30
2018-08-09T21:05:06.804Z,3.93
2018-08-09T21:07:34.203Z,2.87
2018-08-09T21:10:01.647Z,3.63
2018-08-09T21:12:29.070Z,2.50
2018-08-09T21:14:56.577Z,3.43
2018-08-09T21:17:24.830Z,2.70
2018-08-09T21:19:52.770Z,3.63
2018-08-09T21:22:20.179Z,3.37
2018-08-09T21:24:47.528Z,3.53
2018-08-09T21:27:14.898Z,2.50
2018-08-09T21:29:42.250Z,2.40
2018-08-09T21:32:09.624Z,2.03
2018-08-09T21:34:36.957Z,4.73
2018-08-09T21:37:04.358Z,4.90
2018-08-09T21:39:31.693Z,2.63
2018-08-09T21:41:59.065Z,4.37
2018-08-09T21:44:26.719Z,2.07
2018-08-09T21:46:55.195Z,8.27
2018-08-09T21:49:22.975Z,2.63
2018-08-09T21:51:50.394Z,1.60
2018-08-09T21:54:17.760Z,4.23
2018-08-09T21:56:45.129Z,2.03
2018-08-09T21:59:12.553Z,4.67
2018-08-09T22:01:39.951Z,3.10
2018-08-09T22:04:07.303Z,2.20
2018-08-09T22:06:39.879Z,1.87
2018-08-09T22:09:13.698Z,3.43
2018-08-09T22:11:46.364Z,2.40
2018-08-09T22:14:19.198Z,7.53
2018-08-09T22:16:51.974Z,1.93
2018-08-09T22:19:25.033Z,2.20
2018-08-09T22:21:57.734Z,1.63
2018-08-09T22:24:26.858Z,2.03
2018-08-09T22:26:54.774Z,3.67
2018-08-09T22:29:22.186Z,5.20
2018-08-09T22:31:49.613Z,2.13
2018-08-09T22:34:16.955Z,5.80
2018-08-09T22:36:44.544Z,2.00
2018-08-09T22:39:11.919Z,1.70
2018-08-09T22:41:39.296Z,3.07
2018-08-09T22:44:06.642Z,1.60
2018-08-09T22:46:34.102Z,5.90
2018-08-09T22:49:01.470Z,3.13
2018-08-09T22:51:29.109Z,2.97
2018-08-09T22:53:57.553Z,1.83
2018-08-09T22:56:25.396Z,2.83
2018-08-09T22:58:52.845Z,2.67
2018-08-09T23:01:20.194Z,2.37
2018-08-09T23:03:47.816Z,1.60
2018-08-09T23:06:15.204Z,2.30
2018-08-09T23:08:42.622Z,1.20
2018-08-09T23:11:10.008Z,1.20
2018-08-09T23:13:37.375Z,1.50
2018-08-09T23:16:05.161Z,1.30
2018-08-09T23:18:32.542Z,0.90
2018-08-09T23:21:00.277Z,1.40
2018-08-09T23:23:28.590Z,0.87
2018-08-09T23:25:56.431Z,2.23
2018-08-09T23:28:23.887Z,1.63
2018-08-09T23:30:51.298Z,2.80
2018-08-09T23:33:21.239Z,1.27
2018-08-09T23:35:48.743Z,1.00
2018-08-09T23:38:16.113Z,3.03
2018-08-09T23:40:43.537Z,1.17
2018-08-09T23:43:11.098Z,2.10
2018-08-09T23:45:38.442Z,3.03
2018-08-09T23:48:06.151Z,1.30
2018-08-09T23:50:33.563Z,1.27
2018-08-09T23:53:01.418Z,2.90
2018-08-09T23:55:29.857Z,1.50
2018-08-09T23:58:00.621Z,1.50
